Time;durP1;ratioP1;P1;durP2;ratioP2;P2;SDS_P1;SDS_P2;PMS_P1;PMS_P2;Temp;Humidity;BMP_temperature;BMP_pressure;BME280_temperature;BME280_humidity;BME280_pressure;Samples;Min_cycle;Max_cycle;Signal;HPM_P1;HPM_P2
2024/02/06 00:01:02;;;;;;;11.75;4.90;;;5.20;99.90;;;;;;4993742;28;20034;-77
2024/02/06 00:03:28;;;;;;;9.40;5.20;;;5.20;99.90;;;;;;5005770;28;20147;-76
2024/02/06 00:05:53;;;;;;;10.00;4.55;;;5.20;99.90;;;;;;4994230;28;20078;-76
2024/02/06 00:08:19;;;;;;;12.18;4.90;;;5.20;99.90;;;;;;4994335;28;20038;-77
2024/02/06 00:10:45;;;;;;;12.57;5.07;;;5.20;99.90;;;;;;4990543;28;20222;-76
2024/02/06 00:13:10;;;;;;;12.98;4.72;;;5.20;99.90;;;;;;4989819;28;20150;-77
2024/02/06 00:15:37;;;;;;;12.45;5.22;;;5.20;99.90;;;;;;4986502;28;20838;-77
2024/02/06 00:18:03;;;;;;;13.48;4.75;;;5.10;99.90;;;;;;4991387;28;20050;-76
2024/02/06 00:20:28;;;;;;;9.98;4.30;;;5.10;99.90;;;;;;4991292;28;20446;-77
2024/02/06 00:22:54;;;;;;;9.55;5.63;;;5.20;99.90;;;;;;4990965;28;20482;-76
2024/02/06 00:25:20;;;;;;;10.35;4.93;;;5.20;99.90;;;;;;4988161;28;20027;-77
2024/02/06 00:27:45;;;;;;;15.00;5.45;;;5.20;99.90;;;;;;4987513;28;20027;-76
2024/02/06 00:30:11;;;;;;;9.45;4.55;;;5.20;99.90;;;;;;4992694;28;20022;-76
2024/02/06 00:32:37;;;;;;;13.30;5.55;;;5.20;99.90;;;;;;4976227;28;20026;-77
2024/02/06 00:35:03;;;;;;;15.40;6.10;;;5.20;99.90;;;;;;4993144;28;20031;-77
2024/02/06 00:37:31;;;;;;;11.10;5.22;;;5.20;99.90;;;;;;4993375;28;20106;-76
2024/02/06 00:39:57;;;;;;;10.43;5.20;;;5.20;99.90;;;;;;4990471;28;20031;-77
2024/02/06 00:42:23;;;;;;;13.88;6.28;;;5.10;99.90;;;;;;4976064;28;20489;-78
2024/02/06 00:44:49;;;;;;;13.40;5.55;;;5.20;99.90;;;;;;4992621;28;20077;-76
2024/02/06 00:47:16;;;;;;;11.90;5.60;;;5.10;99.90;;;;;;4992922;28;20245;-76
2024/02/06 00:49:42;;;;;;;14.48;6.20;;;5.10;99.90;;;;;;4993304;28;20030;-77
2024/02/06 00:52:07;;;;;;;10.75;6.40;;;5.10;99.90;;;;;;4986606;28;20060;-77
2024/02/06 00:54:33;;;;;;;13.15;6.07;;;5.20;99.90;;;;;;4988404;28;20031;-76
2024/02/06 00:56:59;;;;;;;17.23;6.78;;;5.20;99.90;;;;;;4969735;28;20037;-76
2024/02/06 00:59:25;;;;;;;13.32;5.70;;;5.20;99.90;;;;;;4986509;28;20401;-77
2024/02/06 01:01:51;;;;;;;14.52;6.75;;;5.20;99.90;;;;;;4974810;28;20026;-77
2024/02/06 01:04:18;;;;;;;19.95;6.78;;;5.20;99.90;;;;;;4992093;28;20454;-76
2024/02/06 01:06:43;;;;;;;19.88;7.93;;;5.20;99.90;;;;;;4983437;28;20622;-77
2024/02/06 01:09:11;;;;;;;23.73;7.53;;;5.10;99.90;;;;;;4958866;28;20038;-77
2024/02/06 01:11:36;;;;;;;18.30;6.85;;;5.10;99.90;;;;;;4993538;28;20482;-78
2024/02/06 01:14:02;;;;;;;16.85;6.82;;;5.10;99.90;;;;;;4991325;28;20073;-77
2024/02/06 01:16:28;;;;;;;13.77;6.50;;;5.10;99.90;;;;;;4993501;28;20458;-78
2024/02/06 01:18:54;;;;;;;17.33;8.23;;;5.10;99.90;;;;;;4976563;28;20038;-77
2024/02/06 01:21:20;;;;;;;14.18;6.72;;;5.10;99.90;;;;;;4974794;28;21288;-77
2024/02/06 01:23:46;;;;;;;16.13;7.13;;;5.10;99.90;;;;;;4989271;28;20030;-77
2024/02/06 01:26:13;;;;;;;13.07;6.40;;;5.10;99.90;;;;;;4992955;28;20038;-77
2024/02/06 01:28:39;;;;;;;19.65;6.28;;;5.10;99.90;;;;;;4977040;28;20646;-77
2024/02/06 01:31:05;;;;;;;12.18;5.80;;;5.10;99.90;;;;;;5009299;28;20071;-77
2024/02/06 01:33:30;;;;;;;15.50;6.57;;;5.10;99.90;;;;;;4994119;28;20026;-77
2024/02/06 01:36:15;;;;;;;19.45;7.00;;;5.10;99.90;;;;;;4994038;28;20069;-77
2024/02/06 01:38:40;;;;;;;15.57;6.82;;;5.10;99.90;;;;;;4976190;28;20522;-77
2024/02/06 01:41:07;;;;;;;16.95;7.20;;;5.10;99.90;;;;;;4992220;28;20030;-77
2024/02/06 01:43:32;;;;;;;10.18;5.78;;;5.10;99.90;;;;;;4992738;28;20057;-77
2024/02/06 01:45:59;;;;;;;17.67;6.88;;;5.10;99.90;;;;;;4993970;28;20030;-77
2024/02/06 01:48:27;;;;;;;15.75;6.20;;;5.10;99.90;;;;;;4987950;28;20034;-77
2024/02/06 01:50:53;;;;;;;17.17;7.00;;;5.10;99.90;;;;;;4948174;28;1103944;-77
2024/02/06 01:53:21;;;;;;;21.65;7.05;;;5.10;99.90;;;;;;4995011;28;20084;-77
2024/02/06 01:55:48;;;;;;;13.00;5.80;;;5.00;99.90;;;;;;4994357;28;20033;-77
2024/02/06 01:58:15;;;;;;;13.60;7.05;;;5.00;99.90;;;;;;4990843;28;20177;-77
2024/02/06 02:00:41;;;;;;;14.00;6.45;;;5.00;99.90;;;;;;4966464;28;20062;-77
2024/02/06 02:03:08;;;;;;;13.45;6.50;;;5.00;99.90;;;;;;4990646;28;20046;-77
2024/02/06 02:05:34;;;;;;;16.17;6.80;;;5.00;99.90;;;;;;4994942;28;20022;-77
2024/02/06 02:08:00;;;;;;;14.70;5.78;;;5.00;99.90;;;;;;4994752;28;20565;-77
2024/02/06 02:10:26;;;;;;;15.20;7.55;;;5.00;99.90;;;;;;4987206;28;20026;-77
2024/02/06 02:12:52;;;;;;;14.40;6.70;;;5.00;99.90;;;;;;4994000;28;20050;-77
2024/02/06 02:15:18;;;;;;;12.88;6.72;;;5.00;99.90;;;;;;4992862;28;20038;-77
2024/02/06 02:17:50;;;;;;;14.88;5.43;;;5.00;99.90;;;;;;4984615;28;20033;-77
2024/02/06 02:20:17;;;;;;;13.52;6.65;;;5.10;99.90;;;;;;4992942;28;20367;-77
2024/02/06 02:22:43;;;;;;;13.82;5.82;;;5.10;99.90;;;;;;4991857;28;20030;-77
2024/02/06 02:25:09;;;;;;;11.63;6.00;;;5.10;99.90;;;;;;4975583;28;20035;-77
2024/02/06 02:27:35;;;;;;;14.60;6.65;;;5.10;99.90;;;;;;4992045;28;20045;-77
2024/02/06 02:30:02;;;;;;;14.18;6.55;;;5.00;99.90;;;;;;4990765;28;20031;-77
2024/02/06 02:32:29;;;;;;;15.30;6.25;;;5.00;99.90;;;;;;4985704;28;20105;-77
2024/02/06 02:34:55;;;;;;;14.18;6.55;;;5.00;99.90;;;;;;5005875;28;20065;-77
2024/02/06 02:37:20;;;;;;;14.02;6.25;;;5.00;99.90;;;;;;4992304;28;20425;-77
2024/02/06 02:39:47;;;;;;;18.92;6.80;;;5.00;99.90;;;;;;4993849;28;20033;-77
2024/02/06 02:42:13;;;;;;;12.73;6.03;;;5.00;99.90;;;;;;4992183;28;20038;-77
2024/02/06 02:44:39;;;;;;;19.02;7.30;;;5.00;99.90;;;;;;4988975;28;20492;-77
2024/02/06 02:47:24;;;;;;;18.30;6.78;;;4.90;99.90;;;;;;4987680;28;20045;-78
2024/02/06 02:49:49;;;;;;;17.33;6.18;;;5.00;99.90;;;;;;4976580;28;20030;-77
2024/02/06 02:52:15;;;;;;;11.63;6.65;;;4.90;99.90;;;;;;4975891;28;20128;-77
2024/02/06 02:54:41;;;;;;;13.18;6.63;;;4.90;99.90;;;;;;4993777;28;20030;-77
2024/02/06 02:57:06;;;;;;;13.85;6.55;;;4.90;99.90;;;;;;4992640;28;20488;-77
2024/02/06 02:59:32;;;;;;;12.55;6.60;;;4.90;99.90;;;;;;4994311;28;20060;-78
2024/02/06 03:01:58;;;;;;;17.35;6.90;;;5.00;99.90;;;;;;4992737;28;20089;-77
2024/02/06 03:04:24;;;;;;;16.58;7.22;;;4.90;99.90;;;;;;5004924;28;20026;-77
2024/02/06 03:06:51;;;;;;;16.85;6.97;;;4.90;99.90;;;;;;4996146;28;20085;-77
2024/02/06 03:09:19;;;;;;;17.98;6.60;;;5.00;99.90;;;;;;4994838;28;20049;-78
2024/02/06 03:11:45;;;;;;;15.40;6.18;;;4.90;99.90;;;;;;5009333;28;20454;-77
2024/02/06 03:14:12;;;;;;;15.50;6.95;;;4.90;99.90;;;;;;4992473;28;20027;-77
2024/02/06 03:16:38;;;;;;;13.82;6.40;;;4.90;99.90;;;;;;4992981;28;20045;-78
2024/02/06 03:19:04;;;;;;;13.98;7.10;;;4.90;99.90;;;;;;4992413;28;20113;-77
2024/02/06 03:21:30;;;;;;;14.98;6.40;;;4.90;99.90;;;;;;4992503;28;20053;-77
2024/02/06 03:23:56;;;;;;;12.52;6.80;;;4.90;99.90;;;;;;4988472;28;20402;-77
2024/02/06 03:26:22;;;;;;;11.95;7.18;;;4.90;99.90;;;;;;4992828;28;20092;-77
2024/02/06 03:28:47;;;;;;;16.65;6.53;;;4.90;99.90;;;;;;4993288;28;20037;-77
2024/02/06 03:31:13;;;;;;;14.65;7.30;;;4.90;99.90;;;;;;4996158;28;20034;-78
2024/02/06 03:33:39;;;;;;;15.02;6.72;;;5.00;99.90;;;;;;4992133;28;20022;-77
2024/02/06 03:36:05;;;;;;;16.10;6.72;;;5.00;99.90;;;;;;4974632;28;20038;-77
2024/02/06 03:38:31;;;;;;;15.88;6.90;;;5.00;99.90;;;;;;4994034;28;20034;-78
2024/02/06 03:40:57;;;;;;;17.40;6.65;;;4.90;99.90;;;;;;4996570;28;20041;-77
2024/02/06 03:43:23;;;;;;;13.40;6.22;;;4.90;99.90;;;;;;4996170;28;20037;-77
2024/02/06 03:45:49;;;;;;;13.43;6.18;;;5.00;99.90;;;;;;4996532;28;20038;-77
2024/02/06 03:48:15;;;;;;;17.13;7.50;;;4.90;99.90;;;;;;4997491;28;20038;-77
2024/02/06 03:50:41;;;;;;;16.65;6.75;;;4.90;99.90;;;;;;4997404;28;20102;-77
2024/02/06 03:53:08;;;;;;;14.38;6.97;;;4.90;99.90;;;;;;4997497;28;20034;-77
2024/02/06 03:55:34;;;;;;;15.77;7.10;;;4.90;99.90;;;;;;4992671;28;20034;-77
2024/02/06 03:58:00;;;;;;;15.60;6.88;;;4.90;99.90;;;;;;4991344;28;20549;-77
2024/02/06 04:00:27;;;;;;;17.25;6.45;;;4.90;99.90;;;;;;5012192;28;20185;-77
2024/02/06 04:02:52;;;;;;;13.68;7.20;;;4.80;99.90;;;;;;4997723;28;20113;-77
2024/02/06 04:05:18;;;;;;;16.77;6.18;;;4.90;99.90;;;;;;4988791;28;20054;-78
2024/02/06 04:07:44;;;;;;;12.60;5.65;;;4.90;99.90;;;;;;4996076;28;20098;-77
2024/02/06 04:10:09;;;;;;;12.88;5.80;;;4.90;99.90;;;;;;4979742;28;20038;-77
2024/02/06 04:12:35;;;;;;;14.35;6.13;;;4.90;99.90;;;;;;4995682;28;20034;-77
2024/02/06 04:15:02;;;;;;;14.73;6.47;;;4.90;99.90;;;;;;4995098;28;20441;-77
2024/02/06 04:17:28;;;;;;;13.93;5.80;;;4.90;99.90;;;;;;4991193;28;20022;-77
2024/02/06 04:19:54;;;;;;;10.68;6.00;;;4.90;99.90;;;;;;4978896;28;20088;-77
2024/02/06 04:22:20;;;;;;;9.73;5.68;;;4.90;99.90;;;;;;4996193;28;20042;-77
2024/02/06 04:24:45;;;;;;;10.35;6.22;;;4.90;99.90;;;;;;4995650;28;20049;-77
2024/02/06 04:27:11;;;;;;;14.32;5.95;;;4.90;99.90;;;;;;4978237;28;20038;-77
2024/02/06 04:29:37;;;;;;;11.52;5.88;;;4.90;99.90;;;;;;4994872;28;20027;-78
2024/02/06 04:32:03;;;;;;;15.40;6.22;;;4.90;99.90;;;;;;4994953;28;20038;-77
2024/02/06 04:34:29;;;;;;;10.85;6.88;;;4.90;99.90;;;;;;4995484;28;20045;-77
2024/02/06 04:36:54;;;;;;;15.05;6.13;;;4.80;99.90;;;;;;5006780;28;20043;-77
2024/02/06 04:39:20;;;;;;;13.88;6.50;;;4.80;99.90;;;;;;4994302;28;20034;-77
2024/02/06 04:41:46;;;;;;;14.13;6.18;;;4.80;99.90;;;;;;4978011;28;20496;-77
2024/02/06 04:44:12;;;;;;;9.68;5.80;;;4.80;99.90;;;;;;4995599;28;20022;-77
2024/02/06 04:46:38;;;;;;;14.88;6.88;;;4.80;99.90;;;;;;4995920;28;20057;-77
2024/02/06 04:49:04;;;;;;;12.23;6.45;;;4.80;99.90;;;;;;4977797;28;20066;-77
2024/02/06 04:51:30;;;;;;;11.10;5.97;;;4.90;99.90;;;;;;4993885;28;20030;-77
2024/02/06 04:53:56;;;;;;;11.20;6.00;;;4.90;99.90;;;;;;4993961;28;20511;-77
2024/02/06 04:56:22;;;;;;;11.43;5.40;;;4.90;99.90;;;;;;4961967;28;20121;-77
2024/02/06 04:58:51;;;;;;;10.13;5.47;;;4.90;99.90;;;;;;4995474;28;20065;-77
2024/02/06 05:01:20;;;;;;;9.18;5.07;;;4.80;99.90;;;;;;4961742;28;20038;-77
2024/02/06 05:03:47;;;;;;;12.98;5.22;;;4.80;99.90;;;;;;5010597;28;20126;-77
2024/02/06 05:06:13;;;;;;;12.75;5.53;;;4.80;99.90;;;;;;4994888;28;20034;-77
2024/02/06 05:08:39;;;;;;;10.05;5.07;;;4.90;99.90;;;;;;4993395;28;20053;-77
2024/02/06 05:11:06;;;;;;;13.75;5.63;;;4.80;99.90;;;;;;4994831;28;20041;-77
2024/02/06 05:13:31;;;;;;;10.55;5.45;;;4.80;99.90;;;;;;4993854;28;20054;-77
2024/02/06 05:16:00;;;;;;;13.27;5.07;;;4.80;99.90;;;;;;4994640;28;20065;-77
2024/02/06 05:18:26;;;;;;;9.02;4.72;;;4.80;99.90;;;;;;4991402;28;20031;-77
2024/02/06 05:20:51;;;;;;;13.18;5.30;;;4.80;99.90;;;;;;4976869;28;20494;-77
2024/02/06 05:23:18;;;;;;;14.77;5.20;;;4.80;99.90;;;;;;4977120;28;20034;-77
2024/02/06 05:25:44;;;;;;;7.93;4.50;;;4.80;99.90;;;;;;4993758;28;20033;-77
2024/02/06 05:28:10;;;;;;;11.55;5.35;;;4.80;99.90;;;;;;4995004;28;20105;-78
2024/02/06 05:30:37;;;;;;;8.48;4.82;;;4.80;99.90;;;;;;4994763;28;20401;-77
2024/02/06 05:33:03;;;;;;;11.32;4.60;;;4.80;99.90;;;;;;4994776;28;20137;-77
2024/02/06 05:35:29;;;;;;;11.93;5.22;;;4.80;99.90;;;;;;4993732;28;20054;-77
2024/02/06 05:37:58;;;;;;;12.77;5.43;;;4.80;99.90;;;;;;4993773;28;20438;-78
2024/02/06 05:40:24;;;;;;;14.43;4.93;;;4.80;99.90;;;;;;4994505;28;20031;-78
2024/02/06 05:42:50;;;;;;;15.02;5.80;;;4.80;99.90;;;;;;4994411;28;20077;-77
2024/02/06 05:45:16;;;;;;;12.57;5.43;;;4.80;99.90;;;;;;4986188;28;20041;-77
2024/02/06 05:47:41;;;;;;;11.07;4.75;;;4.80;99.90;;;;;;4976850;28;20034;-77
2024/02/06 05:50:11;;;;;;;15.45;6.75;;;4.80;99.90;;;;;;4994218;28;20034;-77
2024/02/06 05:52:36;;;;;;;10.57;4.60;;;4.70;99.90;;;;;;5001799;23;20130;-75
2024/02/06 05:55:03;;;;;;;10.25;4.72;;;4.70;99.90;;;;;;4971209;28;20178;-75
2024/02/06 05:57:30;;;;;;;7.38;4.18;;;4.70;99.90;;;;;;4970190;28;20066;-75
2024/02/06 05:59:56;;;;;;;12.80;5.30;;;4.70;99.90;;;;;;4976427;28;20124;-76
2024/02/06 06:02:22;;;;;;;11.77;4.95;;;4.70;99.90;;;;;;4975350;28;20034;-75
2024/02/06 06:04:48;;;;;;;9.75;4.47;;;4.70;99.90;;;;;;4977263;28;20038;-76
2024/02/06 06:07:14;;;;;;;8.27;4.47;;;4.70;99.90;;;;;;4975334;28;20722;-75
2024/02/06 06:09:40;;;;;;;8.98;4.57;;;4.70;99.90;;;;;;4975396;28;20041;-76
2024/02/06 06:12:06;;;;;;;10.52;4.38;;;4.70;99.90;;;;;;4973616;28;20043;-76
2024/02/06 06:14:32;;;;;;;9.82;4.70;;;4.80;99.90;;;;;;4973994;28;20029;-76
2024/02/06 06:16:57;;;;;;;8.98;4.65;;;4.80;99.90;;;;;;4978925;28;20426;-75
2024/02/06 06:19:23;;;;;;;5.97;4.13;;;4.70;99.90;;;;;;4978047;28;20552;-76
2024/02/06 06:21:49;;;;;;;7.43;4.32;;;4.70;99.90;;;;;;4979179;28;20037;-77
2024/02/06 06:24:14;;;;;;;7.82;4.63;;;4.70;99.90;;;;;;4976924;28;20379;-76
2024/02/06 06:26:41;;;;;;;9.93;4.45;;;4.70;99.90;;;;;;4980487;28;20603;-75
2024/02/06 06:29:10;;;;;;;9.63;4.22;;;4.70;99.90;;;;;;4977421;28;20113;-76
2024/02/06 06:31:36;;;;;;;10.93;4.20;;;4.70;99.90;;;;;;4978155;28;20026;-76
2024/02/06 06:34:03;;;;;;;10.55;4.28;;;4.70;99.90;;;;;;4975378;28;20045;-75
2024/02/06 06:36:28;;;;;;;9.68;4.50;;;4.70;99.90;;;;;;4974124;28;20405;-76
2024/02/06 06:38:56;;;;;;;12.15;4.82;;;4.70;99.90;;;;;;4973160;28;20121;-75
2024/02/06 06:41:24;;;;;;;13.32;4.93;;;4.70;99.90;;;;;;4983590;28;20027;-76
2024/02/06 06:43:50;;;;;;;9.40;4.80;;;4.60;99.90;;;;;;4972604;28;20141;-76
2024/02/06 06:46:15;;;;;;;13.48;5.07;;;4.60;99.90;;;;;;4980930;28;20223;-76
2024/02/06 06:48:41;;;;;;;9.63;5.22;;;4.60;99.90;;;;;;4977263;28;20030;-76
2024/02/06 06:51:07;;;;;;;9.10;5.05;;;4.60;99.90;;;;;;4979127;28;20042;-76
2024/02/06 06:53:33;;;;;;;9.68;4.65;;;4.60;99.90;;;;;;4980819;28;20085;-76
2024/02/06 06:55:58;;;;;;;7.82;4.32;;;4.60;99.90;;;;;;4976722;28;20088;-76
2024/02/06 06:58:24;;;;;;;12.23;4.88;;;4.60;99.90;;;;;;4981253;28;20065;-75
2024/02/06 07:00:50;;;;;;;12.57;5.38;;;4.60;99.90;;;;;;4973975;28;20085;-76
2024/02/06 07:03:16;;;;;;;10.45;4.15;;;4.60;99.90;;;;;;4976783;28;20031;-76
2024/02/06 07:06:01;;;;;;;7.82;4.97;;;4.70;99.90;;;;;;4970582;28;20144;-76
2024/02/06 07:08:27;;;;;;;5.72;4.00;;;4.60;99.90;;;;;;4979506;28;20108;-75
2024/02/06 07:10:52;;;;;;;11.68;4.63;;;4.70;99.90;;;;;;4974203;28;20494;-75
2024/02/06 07:13:18;;;;;;;7.93;4.05;;;4.70;99.90;;;;;;4971830;28;20027;-76
2024/02/06 07:15:44;;;;;;;7.82;3.85;;;4.70;99.90;;;;;;4971093;28;20047;-77
2024/02/06 07:18:10;;;;;;;7.07;3.83;;;4.70;99.90;;;;;;4960805;28;20039;-77
2024/02/06 07:20:35;;;;;;;7.53;3.80;;;4.70;99.90;;;;;;4973631;28;20038;-76
2024/02/06 07:23:01;;;;;;;5.90;3.08;;;4.70;99.90;;;;;;4977318;28;20035;-76
2024/02/06 07:25:27;;;;;;;8.65;4.50;;;4.70;99.90;;;;;;4974505;28;20406;-75
2024/02/06 07:27:53;;;;;;;11.57;4.22;;;4.80;99.90;;;;;;4970944;28;20039;-76
2024/02/06 07:30:19;;;;;;;7.75;4.07;;;4.70;99.90;;;;;;4969106;28;20039;-76
2024/02/06 07:32:44;;;;;;;9.98;4.57;;;4.70;99.90;;;;;;4967517;28;20027;-76
2024/02/06 07:35:10;;;;;;;7.78;4.63;;;4.70;99.90;;;;;;4966817;28;20081;-76
2024/02/06 07:37:38;;;;;;;10.05;4.20;;;4.80;99.90;;;;;;4969088;28;20031;-76
2024/02/06 07:40:05;;;;;;;8.88;4.85;;;4.90;99.90;;;;;;4970808;28;20041;-74
2024/02/06 07:42:31;;;;;;;7.95;4.70;;;4.80;99.90;;;;;;4970687;28;20487;-76
2024/02/06 07:44:57;;;;;;;10.32;4.38;;;4.80;99.90;;;;;;4970109;28;20077;-76
2024/02/06 07:47:23;;;;;;;9.38;5.22;;;4.80;99.90;;;;;;4973330;28;20089;-75
2024/02/06 07:49:48;;;;;;;9.52;5.00;;;4.80;99.90;;;;;;4970954;28;20038;-77
2024/02/06 07:52:14;;;;;;;8.40;5.25;;;4.90;99.90;;;;;;4976432;28;20047;-75
2024/02/06 07:54:40;;;;;;;16.80;5.07;;;4.90;99.90;;;;;;4978784;28;20058;-76
2024/02/06 07:57:06;;;;;;;14.57;5.80;;;5.00;99.90;;;;;;4976742;28;20070;-75
2024/02/06 07:59:32;;;;;;;10.40;5.57;;;5.00;99.90;;;;;;4978083;28;20054;-76
2024/02/06 08:01:57;;;;;;;13.02;5.63;;;5.00;99.90;;;;;;4973928;28;20074;-76
2024/02/06 08:04:23;;;;;;;9.52;5.30;;;5.00;99.90;;;;;;4974765;28;20046;-77
2024/02/06 08:06:49;;;;;;;12.98;5.13;;;5.10;99.90;;;;;;4973693;28;20031;-76
2024/02/06 08:09:16;;;;;;;8.18;4.35;;;5.10;99.90;;;;;;4976826;28;20521;-75
2024/02/06 08:11:41;;;;;;;10.52;5.40;;;5.10;99.90;;;;;;4971148;28;20045;-76
2024/02/06 08:14:12;;;;;;;11.57;5.57;;;5.10;99.90;;;;;;4972489;28;20031;-76
2024/02/06 08:16:39;;;;;;;8.02;5.20;;;5.10;99.90;;;;;;4973302;28;20479;-75
2024/02/06 08:19:04;;;;;;;8.27;5.30;;;5.10;99.90;;;;;;4972759;28;20039;-76
2024/02/06 08:21:30;;;;;;;8.43;5.05;;;5.10;99.90;;;;;;4973565;28;20054;-76
2024/02/06 08:23:56;;;;;;;11.27;5.47;;;5.10;99.90;;;;;;4971001;28;20031;-76
2024/02/06 08:26:22;;;;;;;11.27;5.50;;;5.10;99.90;;;;;;4972418;28;20525;-76
2024/02/06 08:28:48;;;;;;;11.27;5.10;;;5.10;99.90;;;;;;4966808;28;20457;-76
2024/02/06 08:31:13;;;;;;;9.95;5.53;;;5.10;99.90;;;;;;4975995;28;20119;-76
2024/02/06 08:33:39;;;;;;;10.32;5.63;;;5.10;99.90;;;;;;4974646;28;20152;-74
2024/02/06 08:36:05;;;;;;;7.82;4.85;;;5.00;99.90;;;;;;4972918;28;20035;-76
2024/02/06 08:38:31;;;;;;;11.10;5.43;;;5.10;99.90;;;;;;4976327;28;20077;-76
2024/02/06 08:40:57;;;;;;;10.02;5.57;;;5.10;99.90;;;;;;4975642;28;20069;-76
2024/02/06 08:43:23;;;;;;;11.63;5.35;;;5.10;99.90;;;;;;4975652;28;20042;-76
2024/02/06 08:45:49;;;;;;;11.20;5.93;;;5.10;99.90;;;;;;4974038;28;20027;-76
2024/02/06 08:48:33;;;;;;;9.13;5.93;;;5.10;99.90;;;;;;4969052;28;20098;-75
2024/02/06 08:50:59;;;;;;;16.42;5.65;;;5.10;99.90;;;;;;4981204;28;20039;-76
2024/02/06 08:53:25;;;;;;;9.18;4.90;;;5.10;99.90;;;;;;4997844;28;20034;-76
2024/02/06 08:55:51;;;;;;;9.82;5.45;;;5.10;99.90;;;;;;4980391;28;20026;-76
2024/02/06 08:58:17;;;;;;;11.25;5.85;;;5.10;99.90;;;;;;4981596;28;20054;-76
2024/02/06 09:00:43;;;;;;;10.63;5.00;;;5.10;99.90;;;;;;4979549;28;20037;-76
2024/02/06 09:03:09;;;;;;;9.95;5.25;;;5.10;99.90;;;;;;4978680;28;20621;-76
2024/02/06 09:05:35;;;;;;;10.93;4.95;;;5.20;99.90;;;;;;4977987;28;20030;-76
2024/02/06 09:08:01;;;;;;;9.18;6.03;;;5.20;99.90;;;;;;4977228;28;20070;-75
2024/02/06 09:10:27;;;;;;;12.80;6.10;;;5.20;99.90;;;;;;4977109;28;20035;-76
2024/02/06 09:12:53;;;;;;;7.38;4.93;;;5.20;99.90;;;;;;4974945;28;20035;-77
2024/02/06 09:15:19;;;;;;;11.95;5.60;;;5.30;99.90;;;;;;4974028;28;20042;-75
2024/02/06 09:17:46;;;;;;;10.30;5.20;;;5.30;99.90;;;;;;4973705;28;20394;-76
2024/02/06 09:20:13;;;;;;;9.38;5.38;;;5.30;99.90;;;;;;4973566;28;20031;-76
2024/02/06 09:22:40;;;;;;;8.52;5.28;;;5.40;99.90;;;;;;4980311;28;20494;-76
2024/02/06 09:25:06;;;;;;;6.97;5.03;;;5.40;99.90;;;;;;4979263;28;20031;-76
2024/02/06 09:27:34;;;;;;;7.78;4.35;;;5.40;99.90;;;;;;4980906;28;20121;-76
2024/02/06 09:30:00;;;;;;;7.97;5.10;;;5.50;99.90;;;;;;4977465;28;20143;-76
2024/02/06 09:32:28;;;;;;;8.18;4.72;;;5.50;99.90;;;;;;4979016;28;20034;-77
2024/02/06 09:34:55;;;;;;;7.15;4.88;;;5.50;99.90;;;;;;4975456;28;20122;-76
2024/02/06 09:37:21;;;;;;;8.88;5.00;;;5.50;99.90;;;;;;4978363;28;20035;-76
2024/02/06 09:39:47;;;;;;;9.13;5.45;;;5.50;99.90;;;;;;4975655;28;20173;-77
2024/02/06 09:42:14;;;;;;;11.35;5.55;;;5.50;99.90;;;;;;4976320;28;20118;-76
2024/02/06 09:44:40;;;;;;;7.60;5.15;;;5.60;99.90;;;;;;4974033;28;20035;-76
2024/02/06 09:47:06;;;;;;;7.60;4.88;;;5.60;99.90;;;;;;4969498;28;20042;-77
2024/02/06 09:49:32;;;;;;;5.63;4.25;;;5.70;99.90;;;;;;4970931;28;20023;-76
2024/02/06 09:51:59;;;;;;;9.48;5.28;;;5.70;99.90;;;;;;4975576;28;20035;-76
2024/02/06 09:54:25;;;;;;;6.93;4.70;;;5.70;99.90;;;;;;4978033;28;20109;-77
2024/02/06 09:56:55;;;;;;;6.35;4.57;;;5.60;99.90;;;;;;4977492;28;20119;-76
2024/02/06 09:59:23;;;;;;;5.60;4.55;;;5.60;99.90;;;;;;4980688;28;20050;-76
2024/02/06 10:01:51;;;;;;;9.48;4.63;;;5.50;99.90;;;;;;4977622;28;20090;-77
2024/02/06 10:04:23;;;;;;;8.23;4.65;;;5.50;99.90;;;;;;4977099;28;20035;-76
2024/02/06 10:06:49;;;;;;;5.28;4.40;;;5.50;99.90;;;;;;4974854;28;20046;-77
2024/02/06 10:09:18;;;;;;;8.77;4.65;;;5.50;99.90;;;;;;4975610;28;20035;-76
2024/02/06 10:11:44;;;;;;;9.30;4.22;;;5.50;99.90;;;;;;4973194;28;20034;-76
2024/02/06 10:14:10;;;;;;;6.32;3.80;;;5.50;99.90;;;;;;4972513;28;20037;-76
2024/02/06 10:16:36;;;;;;;7.20;4.25;;;5.50;99.90;;;;;;4972819;28;20033;-76
2024/02/06 10:19:02;;;;;;;6.45;4.15;;;5.50;99.90;;;;;;4969308;28;20422;-76
2024/02/06 10:21:28;;;;;;;10.25;3.50;;;5.50;99.90;;;;;;4972401;28;20037;-77
2024/02/06 10:24:04;;;;;;;8.25;3.75;;;5.60;99.90;;;;;;4978180;28;20490;-77
2024/02/06 10:26:31;;;;;;;5.88;3.45;;;5.60;99.90;;;;;;4981071;28;20045;-76
2024/02/06 10:29:08;;;;;;;6.35;3.50;;;5.70;99.90;;;;;;4973970;28;20030;-76
2024/02/06 10:31:34;;;;;;;11.27;3.88;;;5.70;99.90;;;;;;4974342;28;20046;-76
2024/02/06 10:34:11;;;;;;;8.73;3.47;;;5.80;99.90;;;;;;4976531;28;20023;-76
2024/02/06 10:36:40;;;;;;;6.47;4.07;;;5.80;99.90;;;;;;4972946;28;20032;-77
2024/02/06 10:39:09;;;;;;;6.80;3.65;;;5.90;99.90;;;;;;4973187;28;20073;-76
2024/02/06 10:41:35;;;;;;;8.15;3.75;;;5.90;99.90;;;;;;4975537;28;20038;-76
2024/02/06 10:44:09;;;;;;;5.90;3.25;;;5.90;99.90;;;;;;4973730;28;20034;-76
2024/02/06 10:46:35;;;;;;;5.45;3.55;;;5.80;99.90;;;;;;4972180;28;20110;-77
2024/02/06 10:49:04;;;;;;;4.15;2.63;;;5.80;99.90;;;;;;4970769;28;20137;-76
2024/02/06 10:51:30;;;;;;;5.60;2.95;;;5.90;99.90;;;;;;4968271;28;20046;-77
2024/02/06 10:53:57;;;;;;;7.22;3.17;;;5.90;99.90;;;;;;4970640;28;20422;-76
2024/02/06 10:56:25;;;;;;;7.53;3.05;;;5.80;99.90;;;;;;4978271;28;20040;-77
2024/02/06 10:58:58;;;;;;;4.57;2.88;;;5.80;99.90;;;;;;4977530;28;20474;-77
2024/02/06 11:01:34;;;;;;;6.45;3.78;;;5.80;99.90;;;;;;4979205;28;20046;-77
2024/02/06 11:04:10;;;;;;;6.40;3.25;;;5.80;99.90;;;;;;4973874;28;20027;-77
2024/02/06 11:07:05;;;;;;;6.32;3.03;;;5.80;99.90;;;;;;4977082;28;20026;-77
2024/02/06 11:09:33;;;;;;;8.73;3.40;;;5.90;99.90;;;;;;4975505;28;20035;-75
2024/02/06 11:12:01;;;;;;;7.20;3.40;;;5.80;99.90;;;;;;4972986;28;20050;-75
2024/02/06 11:14:29;;;;;;;7.57;2.65;;;5.90;99.90;;;;;;4974862;28;20026;-77
2024/02/06 11:16:58;;;;;;;6.82;3.28;;;5.90;99.90;;;;;;4972502;28;20039;-76
2024/02/06 11:19:39;;;;;;;5.22;2.70;;;5.90;99.90;;;;;;4972986;28;20054;-76
2024/02/06 11:22:37;;;;;;;5.55;2.88;;;5.90;99.90;;;;;;4964849;28;20034;-76
2024/02/06 11:25:04;;;;;;;8.32;2.80;;;5.90;99.90;;;;;;4969978;28;20035;-76
2024/02/06 11:27:31;;;;;;;5.05;2.83;;;5.80;99.90;;;;;;4980248;28;20049;-77
2024/02/06 11:29:57;;;;;;;6.25;3.05;;;5.90;99.90;;;;;;4972698;28;20121;-76
2024/02/06 11:32:23;;;;;;;4.68;3.30;;;5.80;99.90;;;;;;4973336;28;20043;-76
2024/02/06 11:34:54;;;;;;;6.45;2.75;;;5.80;99.90;;;;;;4973920;28;20023;-76
2024/02/06 11:37:28;;;;;;;5.13;2.83;;;5.90;99.90;;;;;;4975612;28;20422;-76
2024/02/06 11:40:04;;;;;;;5.57;3.00;;;5.80;99.90;;;;;;4973973;28;20101;-77
2024/02/06 11:42:32;;;;;;;6.90;2.92;;;5.90;99.90;;;;;;4974251;28;20549;-77
2024/02/06 11:45:11;;;;;;;5.60;3.28;;;5.80;99.90;;;;;;4973321;28;20071;-77
2024/02/06 11:47:56;;;;;;;6.13;2.72;;;5.80;99.90;;;;;;4969237;28;20038;-75
2024/02/06 11:50:33;;;;;;;;;;;5.90;99.90;;;;;;4968914;28;20399;-76
2024/02/06 11:53:03;;;;;;;8.15;3.58;;;5.80;99.90;;;;;;4995909;23;19929;-77
2024/02/06 11:55:30;;;;;;;5.32;2.90;;;5.90;99.90;;;;;;4970086;28;20042;-78
2024/02/06 11:57:58;;;;;;;6.13;2.97;;;5.90;99.90;;;;;;4964059;28;20038;-78
2024/02/06 12:00:25;;;;;;;6.65;3.10;;;5.90;99.90;;;;;;4971212;28;20030;-78
2024/02/06 12:03:12;;;;;;;4.85;2.85;;;6.00;99.90;;;;;;4972814;28;20054;-78
2024/02/06 12:05:40;;;;;;;6.97;3.00;;;5.90;99.90;;;;;;4973726;28;20490;-78
2024/02/06 12:08:06;;;;;;;8.18;2.95;;;5.90;99.90;;;;;;4971335;28;20097;-78
2024/02/06 12:10:33;;;;;;;4.47;3.08;;;5.90;99.90;;;;;;4971289;28;20054;-78
2024/02/06 12:13:04;;;;;;;6.47;3.00;;;5.90;99.90;;;;;;4969910;28;20034;-78
2024/02/06 12:15:34;;;;;;;6.53;4.15;;;5.90;99.90;;;;;;4970892;28;20128;-79
2024/02/06 12:18:04;;;;;;;6.35;2.92;;;5.90;99.90;;;;;;4954104;28;20033;-78
2024/02/06 12:20:30;;;;;;;4.70;2.83;;;5.90;99.90;;;;;;4970374;28;20069;-78
2024/02/06 12:23:03;;;;;;;6.40;3.47;;;5.90;99.90;;;;;;4972530;28;20409;-78
2024/02/06 12:25:37;;;;;;;6.25;2.88;;;5.90;99.90;;;;;;4973415;28;20319;-78
2024/02/06 12:28:14;;;;;;;10.13;3.22;;;5.90;99.90;;;;;;4967719;28;20046;-77
2024/02/06 12:30:42;;;;;;;6.97;2.80;;;6.00;99.90;;;;;;4986440;28;20046;-78
2024/02/06 12:33:08;;;;;;;6.15;2.53;;;6.00;99.90;;;;;;4973228;28;20037;-78
2024/02/06 12:35:37;;;;;;;5.82;2.85;;;6.00;99.90;;;;;;4972182;28;20509;-78
2024/02/06 12:38:03;;;;;;;7.15;2.90;;;6.10;99.90;;;;;;4974427;28;20039;-78
2024/02/06 12:40:29;;;;;;;4.97;2.50;;;6.10;99.90;;;;;;4972851;28;20054;-78
2024/02/06 12:42:59;;;;;;;5.78;3.28;;;6.10;99.90;;;;;;4968661;28;20035;-78
2024/02/06 12:45:27;;;;;;;5.57;2.60;;;6.10;99.90;;;;;;4973083;28;20058;-78
2024/02/06 12:47:53;;;;;;;5.10;2.97;;;6.10;99.90;;;;;;4956094;28;20045;-78
2024/02/06 12:50:19;;;;;;;5.22;2.45;;;6.00;99.90;;;;;;4971243;28;20557;-78